Weather at Aerodromo Ponte de Sor

Public forecast

Using degrees Celsius for public forecast. Weather courtesy of forecast.io.

Closest aviation weather report (METAR) to Aerodromo Ponte de Sor

Report is more than 6 hours old.

Closest report is Tancos Airbase, 21.3 nm (39.5 km) NW. Retrieved 2009/08/31 14:00 UTC (11 years ago):

LPTN 311400Z /////KT CAVOK 35/19 Q1011 RMK ESTMD WND 28005KT

Closest aviation forecast (TAF) to Aerodromo Ponte de Sor

Forecast is more than 12 hours old.

Closest forecast is Alverca Air Base, 49.5 nm (91.7 km) WSW. Retrieved 2020/11/23 15:00 UTC (7 days ago):

TAF LPAR 231403Z 2315/2324 07008KT 9999 FEW030 BECMG 2312/2314 VRB02KT